Strona główna
Zdjęcia satelitarne 15-dni prognozyKlimatMeteorologia morska Cyklony Błyskawica LotniskoFAQ Gazetka O
Pogoda : Europa Afryka Ameryka Północna Ameryka Południowa Azja Australia-Oceania Inny
Języki Kontakt

Katowice, Polska

Pyrzowice

Szerokość geograficzna: 50-28-27N, Długość geograficzna: 019-04-48E, wysokość: 284 m


METAR: EPKT 202000Z VRB02KT 9999 FEW040 16/07 Q1016
short-TAF: EPKT 201730Z 2018/2103 VRB02KT 9999 SCT035
long-TAF: przestarzały (18792 godziny)

czas: 22:27 (20:27 UTC)

Aktualna obserwacja pogody

Raport powstał 27 minut temu, godzina 20:00 UTC  
Wiatr 02 kt z kierunków zmiennych
Temperatura 16°C
Wilgotność 55%
Ciśnienie 1016 hPa
Widzialność 10 km lub więcej
Mało chmury na wysokości 4000 ft

Jednostka miary

Prognoza

Raport powstał 2 godziny i 54 minut temu, godzina 17:33 UTC  
Prognoza ważna od 20 godzina 18 UTC do 21 godzina 03 UTC
Wiatr 02 kt z kierunków zmiennych
Widzialność 10 km lub więcej
Rozproszone chmury na wysokości 3500 ft
Informacje na tej stronie internetowej podlegają klauzuli o wyłączeniu odpowiedzialności
Pogoda : Europa Afryka Ameryka Północna Ameryka Południowa Azja Australia-Oceania Inny
Zdjęcia satelitarne 15-dni prognozyKlimatMeteorologia morska Cyklony Błyskawica LotniskoFAQ Języki Kontakt Gazetka O